地図

経路データ

SID SEASON NUMBER BASIN SUBBASIN NAME ISO_TIME NATURE LAT LON WMO_WIND WMO_PRES WMO_AGENCY TRACK_TYPE DIST2LAND LANDFALL IFLAG USA_AGENCY USA_ATCF_ID USA_LAT USA_LON USA_RECORD USA_STATUS USA_WIND USA_PRES USA_SSHS USA_R34_NE USA_R34_SE USA_R34_SW USA_R34_NW USA_R50_NE USA_R50_SE USA_R50_SW USA_R50_NW USA_R64_NE USA_R64_SE USA_R64_SW USA_R64_NW USA_POCI USA_ROCI USA_RMW USA_EYE TOKYO_LAT TOKYO_LON TOKYO_GRADE TOKYO_WIND TOKYO_PRES TOKYO_R50_DIR TOKYO_R50_LONG TOKYO_R50_SHORT TOKYO_R30_DIR TOKYO_R30_LONG TOKYO_R30_SHORT TOKYO_LAND CMA_LAT CMA_LON CMA_CAT CMA_WIND CMA_PRES HKO_LAT HKO_LON HKO_CAT HKO_WIND HKO_PRES NEWDELHI_LAT NEWDELHI_LON NEWDELHI_GRADE NEWDELHI_WIND NEWDELHI_PRES NEWDELHI_CI NEWDELHI_DP NEWDELHI_POCI REUNION_LAT REUNION_LON REUNION_TYPE REUNION_WIND REUNION_PRES REUNION_TNUM REUNION_CI REUNION_RMW REUNION_R34_NE REUNION_R34_SE REUNION_R34_SW REUNION_R34_NW REUNION_R50_NE REUNION_R50_SE REUNION_R50_SW REUNION_R50_NW REUNION_R64_NE REUNION_R64_SE REUNION_R64_SW REUNION_R64_NW BOM_LAT BOM_LON BOM_TYPE BOM_WIND BOM_PRES BOM_TNUM BOM_CI BOM_RMW BOM_R34_NE BOM_R34_SE BOM_R34_SW BOM_R34_NW BOM_R50_NE BOM_R50_SE BOM_R50_SW BOM_R50_NW BOM_R64_NE BOM_R64_SE BOM_R64_SW BOM_R64_NW BOM_ROCI BOM_POCI BOM_EYE BOM_POS_METHOD BOM_PRES_METHOD NADI_LAT NADI_LON NADI_CAT NADI_WIND NADI_PRES WELLINGTON_LAT WELLINGTON_LON WELLINGTON_WIND WELLINGTON_PRES DS824_LAT DS824_LON DS824_STAGE DS824_WIND DS824_PRES TD9636_LAT TD9636_LON TD9636_STAGE TD9636_WIND TD9636_PRES TD9635_LAT TD9635_LON TD9635_WIND TD9635_PRES TD9635_ROCI NEUMANN_LAT NEUMANN_LON NEUMANN_CLASS NEUMANN_WIND NEUMANN_PRES MLC_LAT MLC_LON MLC_CLASS MLC_WIND MLC_PRES USA_GUST BOM_GUST BOM_GUST_PER REUNION_GUST REUNION_GUST_PER USA_SEAHGT USA_SEARAD_NE USA_SEARAD_SE USA_SEARAD_SW USA_SEARAD_NW STORM_SPEED STORM_DIR
1987351N09086 1987 102 NI BB NOT_NAMED 1987-12-17 00:00:00 NR 9.00000 86.4000 main 530 484 O_________O___ jtwc_io IO081987 9.00000 86.4000 20 -1 9.00000 86.4000 1 20 15 304
1987351N09086 1987 102 NI BB NOT_NAMED 1987-12-17 03:00:00 NR 9.41156 85.7806 main 484 444 P_________P___ IO081987 9.41261 85.8127 20 -1 9.41050 85.7485 1 21 15 303
1987351N09086 1987 102 NI BB NOT_NAMED 1987-12-17 06:00:00 NR 9.79816 85.1583 main 444 399 O_________P___ jtwc_io IO081987 9.80000 85.2000 20 -1 9.79632 85.1167 1 22 14 301
1987351N09086 1987 102 NI BB NOT_NAMED 1987-12-17 09:00:00 NR 10.1357 84.5446 main 390 361 P_________P___ IO081987 10.1376 84.5625 22 -1 10.1339 84.5266 1 23 13 298
1987351N09086 1987 102 NI BB NOT_NAMED 1987-12-17 12:00:00 NR 10.4000 84.0000 main 361 338 O_________O___ jtwc_io IO081987 10.4000 84.0000 25 -1 10.4000 84.0000 1 25 11 295
1987351N09086 1987 102 NI BB NOT_NAMED 1987-12-17 15:00:00 NR 10.5864 83.5828 main 338 315 P_________P___ IO081987 10.5948 83.6124 25 -1 10.5779 83.5532 1 26 8 291
1987351N09086 1987 102 NI BB NOT_NAMED 1987-12-17 18:00:00 NR 10.6885 83.2397 main 306 278 O_________P___ jtwc_io IO081987 10.7000 83.3000 25 -1 10.6769 83.1794 1 27 7 282
1987351N09086 1987 102 NI BB NOT_NAMED 1987-12-17 21:00:00 NR 10.7250 82.8967 main 278 252 P_________P___ IO081987 10.7375 82.9275 27 -1 10.7125 82.8659 1 28 6 271
1987351N09086 1987 102 NI BB NOT_NAMED 1987-12-18 00:00:00 NR 10.7000 82.6000 main 252 227 O_________O___ jtwc_io IO081987 10.7000 82.6000 30 -1 10.7000 82.6000 1 30 5 260
1987351N09086 1987 102 NI BB NOT_NAMED 1987-12-18 03:00:00 NR 10.6296 82.3650 main 227 204 P_________P___ IO081987 10.6074 82.3775 30 -1 10.6517 82.3526 1 30 5 248
1987351N09086 1987 102 NI BB NOT_NAMED 1987-12-18 06:00:00 NR 10.5324 82.1736 main 204 188 O_________P___ jtwc_io IO081987 10.5000 82.2000 30 -1 10.5648 82.1472 1 30 4 245
1987351N09086 1987 102 NI BB NOT_NAMED 1987-12-18 09:00:00 NR 10.4565 81.9841 main 188 164 P_________P___ IO081987 10.4425 82.0000 30 -1 10.4705 81.9683 1 30 4 250
1987351N09086 1987 102 NI BB NOT_NAMED 1987-12-18 12:00:00 NR 10.4000 81.8000 main 164 151 O_________O___ jtwc_io IO081987 10.4000 81.8000 30 -1 10.4000 81.8000 1 30 4 256
1987351N09086 1987 102 NI BB NOT_NAMED 1987-12-18 15:00:00 NR 10.3538 81.5788 main 151 129 P_________P___ IO081987 10.3275 81.5925 30 -1 10.3800 81.5651 1 28 4 263
1987351N09086 1987 102 NI BB NOT_NAMED 1987-12-18 18:00:00 NR 10.3450 81.3726 main 129 124 O_________P___ jtwc_io IO081987 10.3000 81.4000 30 -1 10.3900 81.3452 1 27 4 277
1987351N09086 1987 102 NI BB NOT_NAMED 1987-12-18 21:00:00 NR 10.4038 81.1876 main 125 117 P_________P___ IO081987 10.3775 81.1976 27 -1 10.4300 81.1777 1 26 3 300
1987351N09086 1987 102 NI BB NOT_NAMED 1987-12-19 00:00:00 NR 10.5000 81.1000 main 125 125 O_________O___ jtwc_io IO081987 10.5000 81.1000 25 -1 10.5000 81.1000 1 25 2 354
1987351N09086 1987 102 NI BB NOT_NAMED 1987-12-19 03:00:00 NR 10.5964 81.1746 main 141 141 P_________P___ IO081987 10.5925 81.2050 25 -1 10.6003 81.1443 1 25 3 48
1987351N09086 1987 102 NI BB NOT_NAMED 1987-12-19 06:00:00 NR 10.7137 81.3400 main 153 153 O_________P___ jtwc_io IO081987 10.7000 81.4000 25 -1 10.7275 81.2799 1 25 4 52
1987351N09086 1987 102 NI BB NOT_NAMED 1987-12-19 09:00:00 NR 10.8579 81.5090 main 174 174 P_________P___ IO081987 10.8500 81.5425 25 -1 10.8659 81.4755 1 25 5 51
1987351N09086 1987 102 NI BB NOT_NAMED 1987-12-19 12:00:00 NR 11.0000 81.7000 main 196 196 O_________O___ jtwc_io IO081987 11.0000 81.7000 25 -1 11.0000 81.7000 1 25 4 56
1987351N09086 1987 102 NI BB NOT_NAMED 1987-12-19 15:00:00 NR 11.1053 81.8882 main 218 218 P_________P___ IO081987 11.1075 81.8850 25 -1 11.1031 81.8913 1 26 4 63
1987351N09086 1987 102 NI BB NOT_NAMED 1987-12-19 18:00:00 NR 11.2000 82.1026 main 240 240 O_________P___ jtwc_io IO081987 11.2000 82.1000 25 -1 11.1999 82.1051 1 27 5 67
1987351N09086 1987 102 NI BB NOT_NAMED 1987-12-19 21:00:00 NR 11.2946 82.3345 main 262 262 P_________P___ IO081987 11.2925 82.3276 27 -1 11.2968 82.3414 1 28 5 68
1987351N09086 1987 102 NI BB NOT_NAMED 1987-12-20 00:00:00 NR 11.4000 82.6000 main 288 288 O_________O___ jtwc_io IO081987 11.4000 82.6000 30 -1 11.4000 82.6000 1 30 6 67
1987351N09086 1987 102 NI BB NOT_NAMED 1987-12-20 03:00:00 NR 11.5360 82.9202 main 314 314 P_________P___ IO081987 11.5501 82.9499 30 -1 11.5220 82.8906 1 31 7 67
1987351N09086 1987 102 NI BB NOT_NAMED 1987-12-20 06:00:00 NR 11.6751 83.2500 main 338 338 O_________P___ jtwc_io IO081987 11.7000 83.3000 30 -1 11.6501 83.1999 1 32 7 67
1987351N09086 1987 102 NI BB NOT_NAMED 1987-12-20 09:00:00 NR 11.7891 83.5372 main 367 367 P_________P___ IO081987 11.7999 83.5651 32 -1 11.7782 83.5093 1 33 6 67
1987351N09086 1987 102 NI BB NOT_NAMED 1987-12-20 12:00:00 NR 11.9000 83.8000 main 397 397 O_________O___ jtwc_io IO081987 11.9000 83.8000 35 0 11.9000 83.8000 2 35 6 63
1987351N09086 1987 102 NI BB NOT_NAMED 1987-12-20 15:00:00 NR 12.0547 84.0764 main 426 426 P_________P___ IO081987 12.0575 84.0575 35 0 12.0519 84.0952 2 35 6 60
1987351N09086 1987 102 NI BB NOT_NAMED 1987-12-20 18:00:00 NR 12.1950 84.3312 main 446 446 O_________P___ jtwc_io IO081987 12.2000 84.3000 35 0 12.1900 84.3624 2 35 5 62
1987351N09086 1987 102 NI BB NOT_NAMED 1987-12-20 21:00:00 NR 12.2966 84.5517 main 478 478 P_________P___ IO081987 12.3100 84.5300 35 0 12.2831 84.5734 2 35 4 74
1987351N09086 1987 102 NI BB NOT_NAMED 1987-12-21 00:00:00 NR 12.3000 84.7000 main 489 489 O_________O___ jtwc_io IO081987 12.3000 84.7000 35 0 12.3000 84.7000 2 35 3 125
1987351N09086 1987 102 NI BB NOT_NAMED 1987-12-21 03:00:00 NR 12.1422 84.7770 main 502 502 P_________P___ IO081987 12.0725 84.8101 32 -1 12.2120 84.7439 2 32 4 171
1987351N09086 1987 102 NI BB NOT_NAMED 1987-12-21 06:00:00 NR 11.9236 84.7501 main 504 484 O_________P___ jtwc_io IO081987 11.8000 84.8000 30 -1 12.0472 84.7002 2 30 4 203
1987351N09086 1987 102 NI BB NOT_NAMED 1987-12-21 09:00:00 NR 11.7632 84.6170 main 484 468 P_________P___ IO081987 11.6925 84.6525 27 -1 11.8339 84.5814 2 27 5 227
1987351N09086 1987 102 NI BB NOT_NAMED 1987-12-21 12:00:00 NR 11.6000 84.4000 main 468 440 O_________O___ jtwc_io IO081987 11.6000 84.4000 25 -1 11.6000 84.4000 1 25 6 231
1987351N09086 1987 102 NI BB NOT_NAMED 1987-12-21 15:00:00 NR 11.4019 84.1530 main 440 400 P_________P___ IO081987 11.4225 84.1075 25 -1 11.3812 84.1986 1 23 7 231
1987351N09086 1987 102 NI BB NOT_NAMED 1987-12-21 18:00:00 NR 11.1750 83.8699 main 400 355 O_________P___ jtwc_io IO081987 11.2000 83.8000 25 -1 11.1500 83.9398 1 22 7 230
1987351N09086 1987 102 NI BB NOT_NAMED 1987-12-21 21:00:00 NR 10.9343 83.5931 main 355 315 P_________P___ IO081987 10.9499 83.5500 22 -1 10.9187 83.6362 1 21 7 230
1987351N09086 1987 102 NI BB NOT_NAMED 1987-12-22 00:00:00 NR 10.7000 83.3000 main 315 276 O_________O___ jtwc_io IO081987 10.7000 83.3000 20 -1 10.7000 83.3000 1 20 7 232
1987351N09086 1987 102 NI BB NOT_NAMED 1987-12-22 03:00:00 NR 10.4774 82.9979 main 276 236 P_________P___ IO081987 10.4849 83.0301 20 -1 10.4699 82.9657 1 20 8 237
1987351N09086 1987 102 NI BB NOT_NAMED 1987-12-22 06:00:00 NR 10.2799 82.6510 main 236 187 O_________P___ jtwc_io IO081987 10.3000 82.7000 20 -1 10.2599 82.6021 1 20 8 244
1987351N09086 1987 102 NI BB NOT_NAMED 1987-12-22 09:00:00 NR 10.1074 82.2425 main 177 134 P_________P___ IO081987 10.1200 82.2724 20 -1 10.0949 82.2125 1 20 9 252
1987351N09086 1987 102 NI BB NOT_NAMED 1987-12-22 12:00:00 NR 10.0000 81.8000 main 134 102 O_________O___ jtwc_io IO081987 10.0000 81.8000 20 -1 10.0000 81.8000 1 20 9 262
1987351N09086 1987 102 NI BB NOT_NAMED 1987-12-22 15:00:00 NR 9.97813 81.3549 main 102 70 P_________P___ IO081987 9.95494 81.3500 20 -1 10.0013 81.3597 1 20 9 272
1987351N09086 1987 102 NI BB NOT_NAMED 1987-12-22 18:00:00 NR 10.0358 80.9002 main 70 49 O_________P___ jtwc_io IO081987 10.0000 80.9000 20 -1 10.0717 80.9004 1 20 9 281
1987351N09086 1987 102 NI BB NOT_NAMED 1987-12-22 21:00:00 NR 10.1581 80.4417 main 55 10 P_________P___ IO081987 10.1350 80.4426 20 -1 10.1811 80.4409 1 20 9 287
1987351N09086 1987 102 NI BB NOT_NAMED 1987-12-23 00:00:00 NR 10.3000 80.0000 main 10 0 O_________O___ jtwc_io IO081987 10.3000 80.0000 20 -1 10.3000 80.0000 1 20 9 287
1987351N09086 1987 102 NI BB NOT_NAMED 1987-12-23 03:00:00 NR 10.4114 79.5903 main 0 0 P_________P___ IO081987 10.4176 79.5900 17 -1 10.4052 79.5906 1 17 8 284
1987351N09086 1987 102 NI BB NOT_NAMED 1987-12-23 06:00:00 NR 10.5000 79.2000 main 0 O_________O___ jtwc_io IO081987 10.5000 79.2000 15 -1 10.5000 79.2000 1 15 8 283

IBTrACS Databaseについて

本データベースは、米国NOAAが公開する1842年以降の世界の熱帯低気圧のベストトラックデータアーカイブInternational Best Track Archive for Climate Stewardship (IBTrACS)を、ウェブで閲覧しやすい形式に変換したものです。

最終更新日:2021-10-21